createdAt,value
2019-01-22T00:05:57.121Z,43.67
2019-01-22T00:08:48.798Z,46.27
2019-01-22T00:11:39.421Z,45.93
2019-01-22T00:14:29.997Z,43.37
2019-01-22T00:20:14.044Z,42.40
2019-01-22T00:22:47.643Z,44.30
2019-01-22T00:25:38.267Z,42.10
2019-01-22T00:28:38.876Z,44.47
2019-01-22T00:31:10.477Z,44.30
2019-01-22T00:34:04.477Z,44.20
2019-01-22T00:36:56.652Z,45.60
2019-01-22T00:39:47.276Z,44.50
2019-01-22T00:42:57.424Z,43.70
2019-01-22T00:45:48.131Z,43.10
2019-01-22T00:57:11.224Z,44.50
2019-01-22T01:08:37.540Z,39.57
2019-01-22T01:11:28.173Z,40.13
2019-01-22T01:14:18.901Z,42.67
2019-01-22T01:23:00.385Z,43.47
2019-01-22T01:25:51.078Z,45.80
2019-01-22T01:31:16.721Z,42.83
2019-01-22T01:34:07.319Z,42.50
2019-01-22T01:36:57.897Z,43.60
2019-01-22T01:39:48.519Z,42.30
2019-01-22T01:42:59.541Z,41.80
2019-01-22T01:51:12.193Z,45.73
2019-01-22T01:54:02.793Z,42.60
2019-01-22T01:56:53.395Z,40.53
2019-01-22T01:59:44.017Z,40.73
2019-01-22T02:05:37.998Z,39.83
2019-01-22T02:11:32.852Z,39.80
2019-01-22T02:24:47.970Z,40.07
2019-01-22T02:28:42.911Z,40.37
2019-01-22T02:32:30.635Z,41.87
2019-01-22T02:35:55.332Z,42.60
2019-01-22T02:45:41.058Z,39.47
2019-01-22T02:49:28.826Z,40.83
2019-01-22T02:53:16.656Z,42.43
2019-01-22T02:57:04.349Z,40.70
2019-01-22T03:04:32.412Z,39.60
2019-01-22T03:08:28.405Z,42.10
2019-01-22T03:12:16.138Z,40.50
2019-01-22T03:19:22.279Z,40.77
2019-01-22T03:23:10.018Z,38.20
2019-01-22T03:26:57.732Z,38.20
2019-01-22T03:30:45.480Z,38.73
2019-01-22T03:34:33.205Z,37.23
2019-01-22T03:41:14.315Z,38.90
2019-01-22T03:44:31.114Z,37.20
2019-01-22T03:48:01.554Z,38.30
2019-01-22T03:51:33.903Z,38.60
2019-01-22T03:55:02.285Z,40.57
2019-01-22T03:58:32.978Z,39.77
2019-01-22T04:04:48.379Z,37.10
2019-01-22T04:08:17.279Z,40.37
2019-01-22T04:14:30.515Z,41.40
2019-01-22T04:17:42.455Z,38.40
2019-01-22T04:20:51.997Z,39.50
2019-01-22T04:24:14.679Z,41.67
2019-01-22T04:27:26.871Z,41.00
2019-01-22T04:31:14.618Z,41.30
2019-01-22T04:34:36.447Z,39.80
2019-01-22T04:38:04.871Z,39.70
2019-01-22T04:41:33.601Z,39.50
2019-01-22T04:45:02.076Z,41.07
2019-01-22T04:48:31.127Z,42.27
2019-01-22T04:52:03.207Z,39.60
2019-01-22T04:55:34.597Z,39.47
2019-01-22T04:59:07.816Z,39.43
2019-01-22T05:02:55.537Z,39.83
2019-01-22T05:06:43.293Z,41.70
2019-01-22T05:13:46.863Z,40.00
2019-01-22T05:17:34.586Z,39.40
2019-01-22T05:21:10.820Z,38.40
2019-01-22T05:24:41.930Z,40.80
2019-01-22T05:28:33.525Z,42.30
2019-01-22T05:32:21.357Z,40.60
2019-01-22T05:39:08.814Z,41.77
2019-01-22T05:42:56.533Z,41.90
2019-01-22T05:49:50.893Z,40.40
2019-01-22T05:53:40.081Z,39.70
2019-01-22T05:57:14.295Z,37.93
2019-01-22T06:04:18.132Z,44.70
2019-01-22T06:08:05.911Z,40.57
2019-01-22T06:11:53.753Z,41.50
2019-01-22T06:15:33.587Z,41.97
2019-01-22T06:18:50.340Z,42.20
2019-01-22T06:22:38.059Z,43.13
2019-01-22T06:35:46.098Z,42.80
2019-01-22T06:39:14.469Z,41.70
2019-01-22T06:43:02.231Z,41.90
2019-01-22T06:49:59.774Z,42.27
2019-01-22T06:53:47.510Z,42.63
2019-01-22T06:57:35.257Z,43.13
2019-01-22T07:04:39.756Z,47.40
2019-01-22T07:07:47.884Z,42.47
2019-01-22T07:14:21.370Z,45.43
2019-01-22T07:17:44.858Z,48.43
2019-01-22T07:24:33.497Z,49.83
2019-01-22T07:28:21.262Z,46.70
2019-01-22T07:32:08.980Z,47.93
2019-01-22T07:35:34.685Z,44.53
2019-01-22T07:39:22.401Z,46.60
2019-01-22T07:43:10.135Z,47.17
2019-01-22T07:46:40.536Z,46.43
2019-01-22T07:50:28.320Z,46.00
2019-01-22T07:53:57.467Z,49.27
2019-01-22T07:57:45.230Z,50.93
2019-01-22T08:01:32.970Z,49.20
2019-01-22T08:05:20.744Z,50.20
2019-01-22T08:08:49.129Z,48.13
2019-01-22T08:12:36.859Z,48.10
2019-01-22T08:16:03.770Z,52.03
2019-01-22T08:19:26.359Z,54.07
2019-01-22T08:22:39.335Z,52.20
2019-01-22T08:25:57.297Z,53.60
2019-01-22T08:29:26.743Z,52.60
2019-01-22T08:33:14.541Z,51.93
2019-01-22T08:37:02.350Z,53.03
2019-01-22T08:43:52.670Z,51.57
2019-01-22T08:47:23.070Z,52.87
2019-01-22T08:57:16.992Z,52.80
2019-01-22T09:00:47.798Z,51.70
2019-01-22T09:04:35.541Z,52.70
2019-01-22T09:08:23.332Z,51.40
2019-01-22T09:12:11.081Z,50.33
2019-01-22T09:15:58.786Z,51.70
2019-01-22T09:19:46.525Z,47.67
2019-01-22T09:23:53.795Z,53.60
2019-01-22T09:27:41.508Z,52.17
2019-01-22T09:31:29.253Z,51.70
2019-01-22T09:34:58.076Z,50.80
2019-01-22T09:43:38.087Z,58.27
2019-01-22T09:46:28.690Z,55.57
2019-01-22T09:49:19.285Z,56.17
2019-01-22T09:54:53.912Z,55.70
2019-01-22T09:57:44.559Z,54.93
2019-01-22T10:06:09.978Z,60.50
2019-01-22T10:09:00.607Z,58.80
2019-01-22T10:11:51.230Z,60.10
2019-01-22T10:14:41.856Z,54.17
2019-01-22T10:18:22.480Z,56.10
2019-01-22T10:20:55.337Z,55.43
2019-01-22T10:26:29.437Z,58.30
2019-01-22T10:29:20.289Z,59.30
2019-01-22T10:32:10.903Z,62.13
2019-01-22T10:38:07.808Z,58.60
2019-01-22T10:41:00.151Z,58.60
2019-01-22T10:43:53.134Z,62.53
2019-01-22T10:53:24.084Z,59.10
2019-01-22T10:55:57.961Z,57.83
2019-01-22T10:58:30.254Z,62.90
2019-01-22T11:01:21.010Z,61.97
2019-01-22T11:04:11.654Z,61.40
2019-01-22T11:07:02.316Z,62.67
2019-01-22T11:16:19.472Z,70.73
2019-01-22T11:19:10.164Z,63.70
2019-01-22T11:21:41.607Z,65.30
2019-01-22T11:24:32.236Z,66.33
2019-01-22T11:27:22.924Z,64.40
2019-01-22T11:30:25.450Z,66.47
2019-01-22T11:32:57.434Z,64.70
2019-01-22T11:35:48.071Z,65.50
2019-01-22T11:38:57.922Z,62.50
2019-01-22T11:41:48.519Z,64.17
2019-01-22T11:44:39.120Z,63.10
2019-01-22T11:47:30.029Z,65.10
2019-01-22T11:50:20.829Z,64.13
2019-01-22T11:52:52.474Z,64.93
2019-01-22T11:55:43.147Z,64.77
2019-01-22T12:04:02.580Z,68.50
2019-01-22T12:06:53.207Z,63.17
2019-01-22T12:09:43.845Z,65.87
2019-01-22T12:12:53.931Z,62.70
2019-01-22T12:18:31.269Z,62.97
2019-01-22T12:27:09.478Z,62.57
2019-01-22T12:32:46.592Z,63.77
2019-01-22T12:35:23.618Z,61.23
2019-01-22T12:38:24.380Z,67.77
2019-01-22T12:40:55.703Z,66.97
2019-01-22T12:43:46.434Z,64.03
2019-01-22T12:46:37.069Z,63.90
2019-01-22T12:49:27.683Z,61.80
2019-01-22T12:52:37.460Z,61.40
2019-01-22T12:58:33.917Z,61.40
2019-01-22T13:01:15.711Z,62.37
2019-01-22T13:03:46.983Z,62.50
2019-01-22T13:09:40.774Z,62.30
2019-01-22T13:12:33.154Z,59.30
2019-01-22T13:15:23.863Z,59.67
2019-01-22T13:18:14.479Z,63.20
2019-01-22T13:23:50.802Z,59.67
2019-01-22T13:37:26.823Z,65.43
2019-01-22T13:40:17.590Z,60.27
2019-01-22T13:45:52.433Z,64.10
2019-01-22T13:48:43.161Z,63.40
2019-01-22T13:51:33.759Z,68.60
2019-01-22T13:54:24.359Z,78.33
2019-01-22T14:02:46.315Z,64.70
2019-01-22T14:05:36.909Z,60.53
2019-01-22T14:11:12.000Z,53.60
2019-01-22T14:14:02.713Z,54.03
2019-01-22T14:16:45.925Z,53.20
2019-01-22T14:19:36.541Z,51.37
2019-01-22T14:22:27.228Z,50.80
2019-01-22T14:25:18.977Z,55.30
2019-01-22T14:28:09.566Z,53.90
2019-01-22T14:31:00.198Z,53.00
2019-01-22T14:33:50.879Z,52.97
2019-01-22T14:36:22.101Z,52.97
2019-01-22T14:44:59.604Z,56.77
2019-01-22T14:47:50.212Z,51.87
2019-01-22T14:50:40.856Z,54.87
2019-01-22T14:53:31.503Z,54.70
2019-01-22T14:56:22.079Z,53.43
2019-01-22T15:01:56.066Z,54.03
2019-01-22T15:04:27.482Z,58.00
2019-01-22T15:13:05.564Z,58.03
2019-01-22T15:16:15.434Z,54.33
2019-01-22T15:24:32.550Z,58.00
2019-01-22T15:30:32.618Z,54.53
2019-01-22T15:33:35.908Z,53.97
2019-01-22T15:36:08.547Z,53.77
2019-01-22T15:41:44.498Z,57.50
2019-01-22T15:44:15.886Z,51.40
2019-01-22T15:47:06.476Z,55.63
2019-01-22T15:49:57.156Z,54.13
2019-01-22T15:52:47.808Z,51.60
2019-01-22T15:55:38.589Z,53.60
2019-01-22T15:58:29.233Z,50.00
2019-01-22T16:01:00.546Z,50.30
2019-01-22T16:03:51.222Z,49.97
2019-01-22T16:06:41.982Z,51.27
2019-01-22T16:09:32.648Z,52.57
2019-01-22T16:15:19.057Z,47.67
2019-01-22T16:18:32.524Z,44.60
2019-01-22T16:21:53.663Z,51.13
2019-01-22T16:24:27.531Z,47.50
2019-01-22T16:27:18.229Z,51.70
2019-01-22T16:30:20.685Z,46.13
2019-01-22T16:32:52.696Z,46.07
2019-01-22T16:35:43.309Z,47.90
2019-01-22T16:38:34.076Z,46.67
2019-01-22T16:41:12.316Z,48.90
2019-01-22T16:44:03.067Z,49.33
2019-01-22T16:46:53.691Z,47.10
2019-01-22T16:55:43.219Z,48.40
2019-01-22T16:58:14.486Z,45.77
2019-01-22T17:00:53.041Z,50.90
2019-01-22T17:03:46.756Z,52.07
2019-01-22T17:06:37.359Z,50.63
2019-01-22T17:18:23.140Z,52.20
2019-01-22T17:21:13.770Z,49.93
2019-01-22T17:24:09.560Z,49.60
2019-01-22T17:26:44.611Z,50.93
2019-01-22T17:41:18.925Z,48.40
2019-01-22T17:44:11.080Z,48.33
2019-01-22T17:46:52.509Z,52.33
2019-01-22T17:52:36.690Z,52.17
2019-01-22T17:55:16.560Z,51.10
2019-01-22T17:58:07.141Z,50.13
2019-01-22T18:06:25.134Z,52.80
2019-01-22T18:11:46.147Z,52.37
2019-01-22T18:14:36.876Z,50.13
2019-01-22T18:17:27.548Z,48.20
2019-01-22T18:23:23.293Z,46.20
2019-01-22T18:26:14.040Z,45.40
2019-01-22T18:29:04.797Z,45.00
2019-01-22T18:31:55.569Z,45.77
2019-01-22T18:40:15.889Z,42.03
2019-01-22T18:42:48.409Z,40.97
2019-01-22T18:45:39.085Z,42.07
2019-01-22T18:48:29.785Z,41.70
2019-01-22T18:51:20.460Z,42.77
2019-01-22T18:54:11.239Z,41.93
2019-01-22T18:57:01.814Z,41.70
2019-01-22T18:59:52.540Z,38.10
2019-01-22T19:02:43.353Z,36.53
2019-01-22T19:05:33.959Z,35.57
2019-01-22T19:08:24.568Z,40.17
2019-01-22T19:11:15.208Z,35.37
2019-01-22T19:23:23.154Z,36.57
2019-01-22T19:26:13.856Z,38.27
2019-01-22T19:29:04.637Z,34.70
2019-01-22T19:31:55.283Z,38.40
2019-01-22T19:34:45.927Z,39.73
2019-01-22T19:37:56.100Z,37.47
2019-01-22T19:40:46.798Z,37.97
2019-01-22T19:43:56.701Z,38.77
2019-01-22T19:46:28.039Z,38.27
2019-01-22T19:49:18.689Z,36.73
2019-01-22T19:52:09.120Z,35.60
2019-01-22T19:54:59.781Z,35.40
2019-01-22T19:57:50.482Z,35.97
2019-01-22T20:03:44.629Z,35.37
2019-01-22T20:09:19.642Z,30.80
2019-01-22T20:12:10.309Z,34.83
2019-01-22T20:17:46.749Z,37.07
2019-01-22T20:23:43.472Z,32.73
2019-01-22T20:26:44.999Z,30.27
2019-01-22T20:29:17.981Z,33.67
2019-01-22T20:41:04.830Z,31.50
2019-01-22T20:44:14.558Z,32.23
2019-01-22T20:47:05.159Z,36.70
2019-01-22T20:49:55.879Z,32.60
2019-01-22T20:52:27.310Z,32.20
2019-01-22T20:55:49.963Z,29.83
2019-01-22T20:58:22.910Z,31.57
2019-01-22T21:01:13.616Z,31.20
2019-01-22T21:07:11.600Z,33.00
2019-01-22T21:10:02.220Z,31.60
2019-01-22T21:15:28.239Z,32.53
2019-01-22T21:18:18.914Z,44.80
2019-01-22T21:21:09.569Z,30.40
2019-01-22T21:24:00.215Z,32.83
2019-01-22T21:29:33.933Z,32.77
2019-01-22T21:32:24.596Z,32.63
2019-01-22T21:35:15.760Z,32.50
2019-01-22T21:37:47.095Z,33.80
2019-01-22T21:43:21.906Z,32.43
2019-01-22T21:48:38.957Z,37.27
2019-01-22T21:54:14.135Z,36.20
2019-01-22T21:56:56.157Z,33.93
2019-01-22T21:59:28.030Z,35.03
2019-01-22T22:07:45.782Z,35.10
2019-01-22T22:10:38.841Z,32.97
2019-01-22T22:13:29.402Z,32.20
2019-01-22T22:16:39.027Z,30.50
2019-01-22T22:19:50.207Z,30.30
2019-01-22T22:28:51.642Z,28.90
2019-01-22T22:42:43.845Z,27.80
2019-01-22T22:48:20.354Z,26.83
2019-01-22T22:51:10.935Z,27.20
2019-01-22T22:54:02.296Z,27.27
2019-01-22T22:57:12.432Z,24.53
2019-01-22T22:59:53.405Z,25.97
2019-01-22T23:02:55.449Z,23.63
2019-01-22T23:05:29.445Z,24.70
2019-01-22T23:11:04.382Z,27.60
2019-01-22T23:13:55.041Z,36.93
2019-01-22T23:16:45.792Z,26.80
2019-01-22T23:22:45.355Z,26.40
2019-01-22T23:28:20.414Z,24.00
2019-01-22T23:31:11.064Z,24.23
2019-01-22T23:34:01.689Z,25.23
2019-01-22T23:36:52.363Z,24.90
2019-01-22T23:39:42.967Z,23.67
2019-01-22T23:42:53.098Z,23.40
2019-01-22T23:45:43.722Z,20.97
2019-01-22T23:48:34.359Z,24.27
2019-01-22T23:51:17.494Z,24.00
2019-01-22T23:54:27.193Z,23.00
2019-01-22T23:57:20.101Z,23.03
